Time;durP1;ratioP1;P1;durP2;ratioP2;P2;SDS_P1;SDS_P2;PMS_P1;PMS_P2;Temp;Humidity;BMP_temperature;BMP_pressure;BME280_temperature;BME280_humidity;BME280_pressure;Samples;Min_cycle;Max_cycle;Signal;HPM_P1;HPM_P2
2021/11/20 00:00:13;;;;;;;22.40;8.93;;;10.70;97.30;;;;;;5086094;28;20449;-84
2021/11/20 00:02:39;;;;;;;21.83;8.07;;;10.70;97.30;;;;;;5078362;28;20484;-83
2021/11/20 00:05:07;;;;;;;20.70;8.70;;;10.70;97.30;;;;;;5090807;28;20513;-84
2021/11/20 00:07:32;;;;;;;24.63;8.60;;;10.70;97.30;;;;;;5091220;28;20184;-82
2021/11/20 00:09:58;;;;;;;20.90;8.63;;;10.70;97.30;;;;;;5091985;28;20930;-83
2021/11/20 00:12:27;;;;;;;17.63;8.87;;;10.70;97.30;;;;;;5088031;28;20237;-83
2021/11/20 00:14:53;;;;;;;23.83;9.87;;;10.70;97.30;;;;;;5075029;28;20182;-83
2021/11/20 00:17:20;;;;;;;20.27;9.13;;;10.70;97.30;;;;;;5091016;28;20480;-83
2021/11/20 00:19:46;;;;;;;14.77;8.80;;;10.70;97.30;;;;;;5088333;28;20429;-83
2021/11/20 00:22:28;;;;;;;20.23;7.63;;;10.70;97.30;;;;;;5071402;28;20482;-83
2021/11/20 00:25:00;;;;;;;20.80;8.43;;;10.70;97.30;;;;;;5071361;28;20420;-83
2021/11/20 00:27:33;;;;;;;18.27;8.63;;;10.70;97.30;;;;;;5072606;28;20917;-82
2021/11/20 00:30:02;;;;;;;19.70;8.77;;;10.70;97.30;;;;;;5076050;28;20436;-83
2021/11/20 00:32:31;;;;;;;20.13;8.30;;;10.70;97.30;;;;;;5090749;28;20951;-83
2021/11/20 00:35:01;;;;;;;16.33;8.40;;;10.70;97.30;;;;;;5091341;28;20452;-83
2021/11/20 00:37:26;;;;;;;20.30;9.63;;;10.70;97.30;;;;;;5090545;28;20455;-83
2021/11/20 00:39:52;;;;;;;20.30;8.53;;;10.70;97.30;;;;;;5072227;28;20420;-83
2021/11/20 00:42:19;;;;;;;23.40;8.77;;;10.70;97.30;;;;;;5073492;28;20167;-83
2021/11/20 00:44:46;;;;;;;18.80;8.40;;;10.70;97.30;;;;;;5071318;28;20433;-82
2021/11/20 00:47:11;;;;;;;15.70;7.90;;;10.60;97.30;;;;;;5071156;28;20429;-83
2021/11/20 00:49:37;;;;;;;20.53;8.57;;;10.60;97.30;;;;;;5070983;28;20424;-83
2021/11/20 00:52:04;;;;;;;19.23;7.80;;;10.60;97.30;;;;;;5071305;28;20183;-83
2021/11/20 00:54:30;;;;;;;20.90;7.73;;;10.60;97.30;;;;;;5091655;28;20432;-82
2021/11/20 00:56:55;;;;;;;21.27;9.07;;;10.60;97.30;;;;;;5091355;28;21025;-83
2021/11/20 00:59:22;;;;;;;22.50;9.03;;;10.60;97.30;;;;;;5091232;28;20174;-83
2021/11/20 01:01:51;;;;;;;19.07;8.70;;;10.60;97.30;;;;;;5079116;28;20251;-84
2021/11/20 01:04:18;;;;;;;21.60;9.00;;;10.60;97.30;;;;;;5092748;28;20486;-84
2021/11/20 01:06:45;;;;;;;20.27;8.83;;;10.60;97.30;;;;;;5078160;28;20452;-83
2021/11/20 01:09:13;;;;;;;18.27;8.33;;;10.60;97.30;;;;;;5079155;28;20469;-83
2021/11/20 01:11:47;;;;;;;23.93;9.40;;;10.60;97.30;;;;;;5095397;28;20432;-83
2021/11/20 01:14:14;;;;;;;18.60;8.80;;;10.60;97.30;;;;;;5078545;28;20538;-83
2021/11/20 01:16:43;;;;;;;23.67;9.60;;;10.60;97.30;;;;;;5092732;28;20560;-82
2021/11/20 01:19:09;;;;;;;19.07;9.40;;;10.50;97.30;;;;;;5095025;28;20552;-83
2021/11/20 01:21:35;;;;;;;18.30;8.53;;;10.50;97.30;;;;;;5076930;28;20429;-83
2021/11/20 01:24:03;;;;;;;18.50;8.77;;;10.50;97.30;;;;;;5090386;28;20424;-83
2021/11/20 01:26:29;;;;;;;21.57;9.87;;;10.50;97.30;;;;;;5093737;28;20456;-83
2021/11/20 01:28:57;;;;;;;17.17;8.33;;;10.50;97.30;;;;;;5094087;28;20433;-84
2021/11/20 01:31:28;;;;;;;24.93;9.37;;;10.50;97.30;;;;;;5082970;28;20444;-83
2021/11/20 01:33:54;;;;;;;20.97;8.67;;;10.50;97.30;;;;;;5087929;28;20778;-83
2021/11/20 01:36:24;;;;;;;21.53;9.10;;;10.50;97.30;;;;;;5074180;28;20469;-84
2021/11/20 01:38:51;;;;;;;22.53;8.90;;;10.50;97.30;;;;;;5086552;28;20413;-84
2021/11/20 01:41:18;;;;;;;19.77;8.77;;;10.50;97.30;;;;;;5075072;28;20421;-83
2021/11/20 01:43:50;;;;;;;23.00;8.80;;;10.50;97.30;;;;;;5074630;28;20420;-82
2021/11/20 01:46:21;;;;;;;20.80;9.30;;;10.50;97.30;;;;;;5088090;28;20448;-83
2021/11/20 01:48:56;;;;;;;18.50;8.20;;;10.60;97.30;;;;;;5093070;28;20420;-81
2021/11/20 01:51:30;;;;;;;25.43;9.37;;;10.60;97.30;;;;;;5076932;28;20425;-82
2021/11/20 01:54:30;;;;;;;20.63;9.33;;;10.60;97.30;;;;;;5087894;28;20464;-82
2021/11/20 01:57:02;;;;;;;20.27;8.57;;;10.60;97.30;;;;;;5089460;28;20475;-84
2021/11/20 02:00:09;;;;;;;19.70;8.50;;;10.60;97.30;;;;;;5093186;28;20440;-84
2021/11/20 02:02:45;;;;;;;24.40;10.67;;;10.60;97.30;;;;;;5077588;28;20463;-83
2021/11/20 02:05:28;;;;;;;26.00;8.30;;;10.60;97.30;;;;;;5075713;28;21046;-83
2021/11/20 02:08:03;;;;;;;30.20;9.17;;;10.60;97.30;;;;;;5073614;28;20425;-83
2021/11/20 02:10:37;;;;;;;23.63;9.83;;;10.60;97.30;;;;;;5082200;28;20412;-84
2021/11/20 02:13:08;;;;;;;25.57;9.63;;;10.60;97.30;;;;;;5093524;28;20444;-83
2021/11/20 02:15:49;;;;;;;23.93;10.00;;;10.60;97.30;;;;;;5093631;28;20585;-84
2021/11/20 02:18:17;;;;;;;28.33;10.23;;;10.60;97.30;;;;;;5093103;28;20433;-84
2021/11/20 02:20:48;;;;;;;26.03;10.00;;;10.60;97.30;;;;;;5082133;28;20524;-84
2021/11/20 02:23:14;;;;;;;27.30;11.50;;;10.60;97.30;;;;;;5073406;28;20791;-84
2021/11/20 02:25:39;;;;;;;24.20;10.63;;;10.60;97.30;;;;;;5073798;28;20457;-84
2021/11/20 02:28:06;;;;;;;25.90;10.43;;;10.60;97.30;;;;;;5072771;28;20171;-84
2021/11/20 02:30:32;;;;;;;29.20;10.90;;;10.60;97.30;;;;;;5077255;28;20177;-84
2021/11/20 02:33:02;;;;;;;22.37;9.90;;;10.60;97.30;;;;;;5078469;28;20420;-85
2021/11/20 02:35:38;;;;;;;23.73;10.07;;;10.70;97.30;;;;;;5092306;28;20195;-84
2021/11/20 02:38:06;;;;;;;22.23;10.47;;;10.70;97.30;;;;;;5077841;28;20437;-84
2021/11/20 02:40:33;;;;;;;22.63;10.17;;;10.70;97.30;;;;;;5072702;28;20643;-84
2021/11/20 02:42:59;;;;;;;24.90;10.03;;;10.70;97.30;;;;;;5077445;28;20439;-84
2021/11/20 02:45:37;;;;;;;21.87;11.60;;;10.70;97.30;;;;;;5092334;28;20444;-84
2021/11/20 02:48:05;;;;;;;22.90;10.03;;;10.70;97.30;;;;;;5092576;28;20440;-84
2021/11/20 02:50:33;;;;;;;29.93;11.87;;;10.70;97.30;;;;;;5083341;28;20428;-84
2021/11/20 02:53:00;;;;;;;23.13;11.23;;;10.70;97.30;;;;;;5076914;28;20432;-84
2021/11/20 02:55:26;;;;;;;21.90;10.30;;;10.70;97.30;;;;;;5084105;28;20457;-83
2021/11/20 02:57:52;;;;;;;24.17;10.93;;;10.70;97.30;;;;;;5072725;28;20927;-83
2021/11/20 03:00:18;;;;;;;29.80;13.17;;;10.70;97.30;;;;;;5085774;28;20444;-83
2021/11/20 03:02:45;;;;;;;26.47;10.03;;;10.70;97.30;;;;;;5077194;28;20682;-82
2021/11/20 03:05:12;;;;;;;24.43;10.60;;;10.70;97.30;;;;;;5092503;28;20821;-83
2021/11/20 03:07:38;;;;;;;26.40;11.50;;;10.70;97.30;;;;;;5090233;28;20476;-82
2021/11/20 03:10:07;;;;;;;24.53;11.50;;;10.70;97.30;;;;;;5073912;28;20434;-82
2021/11/20 03:12:32;;;;;;;24.13;10.37;;;10.70;97.30;;;;;;5073038;28;20861;-82
2021/11/20 03:14:59;;;;;;;22.43;10.20;;;10.70;97.30;;;;;;5074444;28;20464;-83
2021/11/20 03:17:25;;;;;;;23.87;10.40;;;10.70;97.30;;;;;;5072755;28;20254;-84
2021/11/20 03:19:51;;;;;;;26.10;12.97;;;10.70;97.30;;;;;;5089382;28;20417;-83
2021/11/20 03:22:36;;;;;;;24.87;10.57;;;10.60;97.30;;;;;;5073230;28;20418;-83
2021/11/20 03:25:04;;;;;;;26.47;11.17;;;10.60;97.30;;;;;;5073278;28;20425;-82
2021/11/20 03:27:29;;;;;;;33.33;11.33;;;10.60;97.30;;;;;;5073085;28;20780;-83
2021/11/20 03:29:55;;;;;;;23.00;10.60;;;10.60;97.30;;;;;;5073095;28;20417;-83
2021/11/20 03:32:21;;;;;;;22.93;9.57;;;10.60;97.30;;;;;;5078200;28;20171;-83
2021/11/20 03:34:47;;;;;;;32.47;11.73;;;10.60;97.30;;;;;;5093277;28;20236;-84
2021/11/20 03:37:13;;;;;;;25.70;9.97;;;10.60;97.30;;;;;;5093336;28;20460;-82
2021/11/20 03:39:40;;;;;;;23.93;10.53;;;10.60;97.30;;;;;;5092975;28;20462;-82
2021/11/20 03:42:06;;;;;;;21.43;9.93;;;10.60;97.30;;;;;;5092293;28;20412;-83
2021/11/20 03:44:32;;;;;;;28.97;11.00;;;10.60;97.30;;;;;;5090395;28;20733;-84
2021/11/20 03:46:58;;;;;;;23.73;11.33;;;10.50;97.30;;;;;;5072161;28;20453;-84
2021/11/20 03:49:23;;;;;;;24.43;11.30;;;10.60;97.30;;;;;;5071632;28;20179;-83
2021/11/20 03:51:49;;;;;;;22.63;9.93;;;10.60;97.30;;;;;;5090955;28;20416;-83
2021/11/20 03:54:15;;;;;;;24.03;9.17;;;10.50;97.30;;;;;;5079684;28;20240;-83
2021/11/20 03:56:41;;;;;;;22.13;9.67;;;10.50;97.30;;;;;;5089666;28;20985;-84
2021/11/20 03:59:07;;;;;;;23.57;10.17;;;10.60;97.30;;;;;;5075492;28;20516;-84
2021/11/20 04:01:34;;;;;;;22.40;9.43;;;10.50;97.30;;;;;;5076891;28;20504;-84
2021/11/20 04:03:59;;;;;;;26.70;12.07;;;10.50;97.30;;;;;;5089939;28;20637;-84
2021/11/20 04:06:25;;;;;;;24.20;9.80;;;10.50;97.30;;;;;;5091922;28;20486;-83
2021/11/20 04:08:52;;;;;;;23.60;9.70;;;10.50;97.30;;;;;;5091095;28;20225;-81
2021/11/20 04:11:31;;;;;;;21.47;9.23;;;10.50;97.30;;;;;;5092043;28;20182;-84
2021/11/20 04:13:58;;;;;;;21.13;8.87;;;10.50;97.30;;;;;;5074113;28;20425;-84
2021/11/20 04:16:25;;;;;;;26.53;8.80;;;10.50;97.30;;;;;;5071344;28;20473;-83
2021/11/20 04:18:52;;;;;;;19.40;8.83;;;10.50;97.30;;;;;;5071557;28;20405;-82
2021/11/20 04:21:18;;;;;;;16.53;8.63;;;10.50;97.30;;;;;;5084928;28;20478;-82
2021/11/20 04:23:45;;;;;;;21.00;8.80;;;10.40;97.30;;;;;;5074892;28;20927;-82
2021/11/20 04:26:14;;;;;;;20.00;8.77;;;10.40;97.30;;;;;;5070925;28;20518;-83
2021/11/20 04:28:39;;;;;;;20.47;9.83;;;10.40;97.30;;;;;;5071242;28;20417;-83
2021/11/20 04:31:05;;;;;;;21.13;9.40;;;10.40;97.30;;;;;;5072128;28;20969;-84
2021/11/20 04:33:31;;;;;;;21.03;8.53;;;10.40;97.30;;;;;;5072179;28;20171;-83
2021/11/20 04:35:57;;;;;;;16.83;9.10;;;10.40;97.30;;;;;;5071354;28;20578;-82
2021/11/20 04:38:23;;;;;;;26.80;10.80;;;10.40;97.30;;;;;;5084348;28;20205;-84
2021/11/20 04:40:49;;;;;;;21.30;9.10;;;10.40;97.30;;;;;;5077199;28;20491;-83
2021/11/20 04:43:15;;;;;;;23.13;9.37;;;10.40;97.30;;;;;;5083234;28;20460;-84
2021/11/20 04:45:42;;;;;;;23.03;9.43;;;10.40;97.30;;;;;;5095694;28;20201;-83
2021/11/20 04:48:08;;;;;;;20.87;9.57;;;10.40;97.30;;;;;;5090845;28;20432;-82
2021/11/20 04:50:34;;;;;;;19.63;9.73;;;10.40;97.30;;;;;;5075361;28;20433;-83
2021/11/20 04:52:59;;;;;;;20.87;9.67;;;10.40;97.30;;;;;;5080546;28;20767;-82
2021/11/20 04:55:26;;;;;;;22.70;10.77;;;10.40;97.30;;;;;;5086715;28;20444;-83
2021/11/20 04:57:52;;;;;;;21.80;9.00;;;10.40;97.30;;;;;;5076853;28;20610;-82
2021/11/20 05:00:27;;;;;;;19.47;9.60;;;10.40;97.30;;;;;;5095219;28;20447;-82
2021/11/20 05:02:54;;;;;;;24.57;10.67;;;10.40;97.30;;;;;;5076169;28;20425;-81
2021/11/20 05:05:20;;;;;;;28.83;11.97;;;10.40;97.30;;;;;;5094655;28;20444;-82
2021/11/20 05:07:45;;;;;;;27.00;11.70;;;10.40;97.30;;;;;;5086047;28;20437;-82
2021/11/20 05:10:14;;;;;;;24.87;11.10;;;10.40;97.30;;;;;;5075508;28;20421;-81
2021/11/20 05:12:40;;;;;;;26.70;11.60;;;10.40;97.30;;;;;;5076697;28;20190;-82
2021/11/20 05:15:08;;;;;;;26.40;10.60;;;10.40;97.30;;;;;;5078740;28;20479;-83
2021/11/20 05:17:34;;;;;;;26.20;11.70;;;10.40;97.30;;;;;;5095040;28;20596;-82
2021/11/20 05:20:00;;;;;;;26.73;11.20;;;10.50;97.30;;;;;;5095707;28;20490;-82
2021/11/20 05:22:26;;;;;;;29.87;11.77;;;10.50;97.30;;;;;;5094845;28;20704;-82
2021/11/20 05:24:52;;;;;;;29.67;10.67;;;10.50;97.30;;;;;;5094193;28;20517;-83
2021/11/20 05:27:18;;;;;;;25.50;11.37;;;10.50;97.30;;;;;;5095134;28;20178;-82
2021/11/20 05:29:57;;;;;;;32.80;12.17;;;10.50;97.30;;;;;;5081357;28;20438;-82
2021/11/20 05:32:22;;;;;;;31.63;12.67;;;10.50;97.30;;;;;;5092651;28;20436;-83
2021/11/20 05:34:48;;;;;;;26.37;11.67;;;10.50;97.30;;;;;;5080961;28;20429;-83
2021/11/20 05:37:14;;;;;;;33.03;12.07;;;10.60;97.30;;;;;;5091838;28;20198;-83
2021/11/20 05:39:40;;;;;;;30.70;12.30;;;10.60;97.30;;;;;;5095371;28;20187;-83
2021/11/20 05:42:07;;;;;;;33.23;12.70;;;10.60;97.30;;;;;;5094009;28;20447;-83
2021/11/20 05:44:33;;;;;;;28.87;12.87;;;10.60;97.30;;;;;;5081499;28;20175;-83
2021/11/20 05:46:59;;;;;;;27.73;11.30;;;10.60;97.30;;;;;;5074972;28;20506;-83
2021/11/20 05:49:27;;;;;;;29.03;11.87;;;10.60;97.30;;;;;;5074831;28;20425;-83
2021/11/20 05:51:53;;;;;;;29.83;11.90;;;10.60;97.30;;;;;;5075188;28;20657;-82
2021/11/20 05:54:19;;;;;;;33.83;12.70;;;10.60;97.30;;;;;;5075616;28;20520;-83
2021/11/20 05:56:44;;;;;;;23.97;10.33;;;10.60;97.30;;;;;;5075162;28;20980;-83
2021/11/20 05:59:10;;;;;;;27.60;11.93;;;10.60;97.30;;;;;;5075044;28;20171;-83
2021/11/20 06:01:36;;;;;;;28.80;11.50;;;10.60;97.30;;;;;;5094894;28;20178;-83
2021/11/20 06:04:01;;;;;;;30.03;11.67;;;10.60;97.30;;;;;;5093044;28;20178;-83
2021/11/20 06:06:27;;;;;;;26.20;11.40;;;10.60;97.30;;;;;;5073655;28;20195;-84
2021/11/20 06:08:53;;;;;;;30.63;12.50;;;10.70;97.30;;;;;;5074207;28;20274;-82
2021/11/20 06:11:19;;;;;;;30.33;11.63;;;10.60;97.30;;;;;;5074058;28;20645;-83
2021/11/20 06:13:45;;;;;;;25.37;11.00;;;10.70;97.30;;;;;;5079357;28;20182;-82
2021/11/20 06:16:11;;;;;;;25.90;10.50;;;10.70;97.30;;;;;;5094072;28;20506;-82
2021/11/20 06:18:37;;;;;;;26.30;10.40;;;10.70;97.30;;;;;;5093617;28;20405;-82
2021/11/20 06:21:06;;;;;;;26.90;11.93;;;10.60;97.30;;;;;;5079897;28;20655;-83
2021/11/20 06:23:33;;;;;;;25.33;11.43;;;10.70;97.30;;;;;;5075965;28;20312;-82
2021/11/20 06:25:59;;;;;;;21.00;10.07;;;10.60;97.30;;;;;;5093001;28;20445;-82
2021/11/20 06:28:25;;;;;;;29.73;11.60;;;10.60;97.30;;;;;;5092517;28;20443;-83
2021/11/20 06:30:51;;;;;;;23.43;10.43;;;10.60;97.30;;;;;;5086312;28;20432;-83
2021/11/20 06:33:17;;;;;;;27.67;12.10;;;10.60;97.30;;;;;;5073389;28;20797;-83
2021/11/20 06:35:43;;;;;;;25.67;10.40;;;10.60;97.30;;;;;;5089236;28;20447;-83
2021/11/20 06:38:09;;;;;;;32.00;13.07;;;10.60;97.30;;;;;;5092968;28;20571;-83
2021/11/20 06:40:41;;;;;;;35.53;11.23;;;10.60;97.30;;;;;;5090778;28;20186;-83
2021/11/20 06:43:09;;;;;;;29.30;11.03;;;10.60;97.30;;;;;;5092284;28;20795;-83
2021/11/20 06:45:38;;;;;;;24.53;10.57;;;10.60;97.30;;;;;;5092463;28;20440;-82
2021/11/20 06:48:05;;;;;;;27.87;11.20;;;10.60;97.30;;;;;;5090549;28;20440;-82
2021/11/20 06:50:32;;;;;;;28.90;11.20;;;10.60;97.30;;;;;;5107279;28;20424;-82
2021/11/20 06:52:58;;;;;;;25.90;10.90;;;10.60;97.30;;;;;;5094947;28;20401;-82
2021/11/20 06:55:27;;;;;;;33.23;10.93;;;10.60;97.30;;;;;;5091567;28;20471;-83
2021/11/20 06:57:56;;;;;;;24.90;10.63;;;10.60;97.30;;;;;;5092991;28;20460;-82
2021/11/20 07:00:26;;;;;;;23.10;11.17;;;10.60;97.30;;;;;;5092488;28;20945;-82
2021/11/20 07:03:13;;;;;;;30.50;11.77;;;10.60;97.30;;;;;;5093206;28;20977;-83
2021/11/20 07:05:53;;;;;;;26.10;10.40;;;10.60;97.30;;;;;;5089378;28;21073;-83
2021/11/20 07:08:20;;;;;;;30.37;10.77;;;10.60;97.30;;;;;;5086136;28;20476;-82
2021/11/20 07:10:47;;;;;;;24.97;11.60;;;10.60;97.30;;;;;;5092854;28;20515;-82
2021/11/20 07:13:14;;;;;;;27.40;11.73;;;10.60;97.30;;;;;;5090322;28;20454;-83
2021/11/20 07:15:40;;;;;;;28.10;10.67;;;10.60;97.30;;;;;;5091761;28;20455;-83
2021/11/20 07:18:06;;;;;;;28.60;10.30;;;10.70;97.30;;;;;;5093090;28;20819;-82
2021/11/20 07:20:33;;;;;;;29.13;9.50;;;10.60;97.30;;;;;;5092115;28;20167;-84
2021/11/20 07:23:00;;;;;;;27.03;9.70;;;10.70;97.30;;;;;;5092276;28;20417;-86
2021/11/20 07:25:27;;;;;;;26.73;9.60;;;10.70;97.30;;;;;;5086371;28;20437;-82
2021/11/20 07:27:54;;;;;;;26.80;10.97;;;10.70;97.30;;;;;;5091917;28;20983;-83
2021/11/20 07:30:21;;;;;;;26.90;10.30;;;10.70;97.30;;;;;;5092210;28;20478;-82
2021/11/20 07:32:49;;;;;;;27.00;11.13;;;10.70;97.30;;;;;;5092483;28;20420;-83
2021/11/20 07:35:25;;;;;;;26.83;11.70;;;10.70;97.30;;;;;;5091615;28;20812;-82
2021/11/20 07:37:51;;;;;;;27.10;12.87;;;10.70;97.30;;;;;;5090386;28;20451;-83
2021/11/20 07:40:17;;;;;;;33.43;12.60;;;10.70;97.30;;;;;;5091812;28;20416;-81
2021/11/20 07:42:42;;;;;;;31.07;11.57;;;10.60;97.30;;;;;;5090897;28;21189;-82
2021/11/20 07:45:08;;;;;;;29.43;11.70;;;10.60;97.30;;;;;;5092028;28;20202;-82
2021/11/20 07:47:34;;;;;;;30.03;10.60;;;10.60;97.30;;;;;;5092093;28;20179;-83
2021/11/20 07:50:00;;;;;;;30.43;11.57;;;10.60;97.30;;;;;;5091757;28;20792;-83
2021/11/20 07:52:37;;;;;;;25.87;11.27;;;10.60;97.30;;;;;;5091096;28;20602;-82
2021/11/20 07:55:05;;;;;;;27.00;12.10;;;10.60;97.30;;;;;;5092228;28;20206;-82
2021/11/20 07:57:31;;;;;;;31.43;11.77;;;10.60;97.30;;;;;;5086108;28;20515;-83
2021/11/20 07:59:57;;;;;;;27.60;13.00;;;10.60;97.30;;;;;;5091498;28;20461;-84
2021/11/20 08:02:22;;;;;;;26.30;11.67;;;10.60;97.30;;;;;;5091591;28;20174;-83
2021/11/20 08:04:48;;;;;;;25.37;10.87;;;10.60;97.30;;;;;;5090234;28;20206;-83
2021/11/20 08:07:13;;;;;;;28.00;12.13;;;10.60;97.30;;;;;;5091386;28;20174;-83
2021/11/20 08:09:39;;;;;;;33.47;13.90;;;10.60;97.30;;;;;;5087002;28;20182;-84
2021/11/20 08:12:05;;;;;;;33.80;12.47;;;10.60;97.30;;;;;;5091006;28;20170;-84
2021/11/20 08:14:31;;;;;;;37.23;12.73;;;10.60;97.30;;;;;;5090410;28;20675;-84
2021/11/20 08:16:56;;;;;;;32.80;12.07;;;10.60;97.30;;;;;;5091365;28;20500;-84
2021/11/20 08:19:23;;;;;;;29.83;11.37;;;10.60;97.30;;;;;;5090068;28;20608;-83
2021/11/20 08:21:48;;;;;;;27.47;11.80;;;10.60;97.30;;;;;;5091230;28;20219;-83
2021/11/20 08:24:15;;;;;;;36.57;13.80;;;10.60;97.30;;;;;;5092230;28;20459;-83
2021/11/20 08:26:43;;;;;;;27.03;11.80;;;10.60;97.30;;;;;;5092776;28;20269;-84
2021/11/20 08:29:13;;;;;;;33.93;12.57;;;10.60;97.30;;;;;;5088494;28;20432;-84
2021/11/20 08:31:44;;;;;;;28.87;11.03;;;10.60;97.30;;;;;;5090135;28;20504;-82
2021/11/20 08:34:11;;;;;;;29.10;13.13;;;10.60;97.30;;;;;;5081740;28;20916;-83
2021/11/20 08:36:38;;;;;;;28.70;11.37;;;10.60;97.30;;;;;;5070814;28;20468;-83
2021/11/20 08:39:06;;;;;;;34.40;11.87;;;10.60;97.30;;;;;;5090360;28;20428;-84
2021/11/20 08:41:32;;;;;;;30.60;12.97;;;10.60;97.30;;;;;;5091764;28;20832;-84
2021/11/20 08:43:57;;;;;;;33.47;12.50;;;10.60;97.30;;;;;;5091133;28;20419;-83
2021/11/20 08:46:23;;;;;;;30.07;11.60;;;10.60;97.30;;;;;;5090840;28;20831;-83
2021/11/20 08:48:50;;;;;;;43.60;12.23;;;10.60;97.30;;;;;;5072325;28;20190;-82
2021/11/20 08:51:22;;;;;;;32.50;12.37;;;10.60;97.30;;;;;;5072055;28;20466;-84
2021/11/20 08:53:50;;;;;;;37.03;13.27;;;10.60;97.30;;;;;;5078699;28;20425;-83
2021/11/20 08:56:16;;;;;;;30.83;11.83;;;10.60;97.30;;;;;;5089426;28;20817;-84
2021/11/20 08:58:43;;;;;;;35.90;12.47;;;10.60;97.30;;;;;;5089826;28;20443;-83
2021/11/20 09:01:22;;;;;;;36.20;14.50;;;10.60;97.30;;;;;;5090986;28;20424;-84
2021/11/20 09:04:03;;;;;;;36.40;13.27;;;10.60;97.30;;;;;;5091148;28;20412;-83
2021/11/20 09:06:45;;;;;;;33.37;12.40;;;10.60;97.30;;;;;;5084167;28;20962;-84
2021/11/20 09:09:31;;;;;;;32.73;12.67;;;10.60;97.30;;;;;;5093980;28;20428;-83
2021/11/20 09:12:22;;;;;;;42.47;14.20;;;10.60;97.30;;;;;;5093058;28;20432;-83
2021/11/20 09:14:58;;;;;;;33.97;13.70;;;10.60;97.30;;;;;;5084815;28;20436;-82
2021/11/20 09:17:25;;;;;;;33.43;13.53;;;10.60;97.30;;;;;;5092523;28;20562;-83
2021/11/20 09:19:51;;;;;;;33.90;12.80;;;10.60;97.30;;;;;;5092590;28;20420;-83
2021/11/20 09:22:17;;;;;;;27.90;12.10;;;10.70;97.30;;;;;;5091668;28;20932;-82
2021/11/20 09:24:45;;;;;;;29.47;12.27;;;10.70;97.30;;;;;;5091442;28;20420;-83
2021/11/20 09:27:12;;;;;;;32.90;13.63;;;10.70;97.30;;;;;;5073318;28;20264;-84
2021/11/20 09:29:39;;;;;;;40.47;14.70;;;10.70;97.30;;;;;;5071991;28;20478;-83
2021/11/20 09:32:06;;;;;;;28.43;13.47;;;10.70;97.30;;;;;;5072800;28;20478;-83
2021/11/20 09:34:32;;;;;;;39.87;13.70;;;10.70;97.30;;;;;;5073135;28;20417;-83
2021/11/20 09:36:59;;;;;;;33.90;13.50;;;10.70;97.30;;;;;;5083227;28;20467;-83
2021/11/20 09:39:28;;;;;;;30.50;11.50;;;10.70;97.30;;;;;;5073846;28;20494;-84
2021/11/20 09:42:19;;;;;;;33.27;12.87;;;10.70;97.30;;;;;;5073817;28;20516;-84
2021/11/20 09:44:51;;;;;;;34.40;13.13;;;10.80;97.30;;;;;;5073942;28;20417;-83
2021/11/20 09:47:29;;;;;;;34.33;12.17;;;10.80;97.30;;;;;;5074150;28;20394;-84
2021/11/20 09:50:06;;;;;;;27.57;11.80;;;10.80;97.30;;;;;;5074227;28;20414;-84
2021/11/20 09:52:32;;;;;;;35.97;11.97;;;10.80;97.30;;;;;;5074619;28;20417;-83
2021/11/20 09:54:57;;;;;;;32.90;12.67;;;10.80;97.30;;;;;;5075273;28;20448;-82
2021/11/20 09:57:30;;;;;;;39.17;13.33;;;10.80;97.30;;;;;;5094969;28;20877;-85
2021/11/20 10:00:14;;;;;;;35.43;13.00;;;10.80;97.30;;;;;;5095207;28;20182;-83
2021/11/20 10:02:40;;;;;;;36.53;13.30;;;10.80;97.30;;;;;;5090884;28;20461;-84
2021/11/20 10:05:08;;;;;;;34.53;12.73;;;10.80;97.30;;;;;;5088387;28;20842;-84
2021/11/20 10:07:50;;;;;;;34.97;12.53;;;10.80;97.30;;;;;;5094982;28;20189;-84
2021/11/20 10:10:31;;;;;;;27.60;11.40;;;10.80;97.30;;;;;;5095679;28;20434;-85
2021/11/20 10:13:21;;;;;;;40.20;12.33;;;10.80;97.30;;;;;;5090809;28;20439;-85
2021/11/20 10:16:00;;;;;;;31.23;13.10;;;10.80;97.30;;;;;;5089895;28;20946;-85
2021/11/20 10:18:40;;;;;;;36.97;11.97;;;10.80;97.30;;;;;;5092819;28;20443;-84
2021/11/20 10:21:09;;;;;;;33.77;11.37;;;10.80;97.30;;;;;;5100403;28;20421;-83
2021/11/20 10:23:49;;;;;;;26.80;10.67;;;10.80;97.30;;;;;;5082965;28;20421;-84
2021/11/20 10:26:43;;;;;;;27.03;10.07;;;10.80;97.30;;;;;;5074423;28;20440;-84
2021/11/20 10:29:44;;;;;;;28.03;12.13;;;10.80;97.30;;;;;;5074638;28;20918;-85
2021/11/20 10:32:17;;;;;;;27.27;10.47;;;10.80;97.30;;;;;;5078208;28;20934;-84
2021/11/20 10:34:45;;;;;;;24.73;10.23;;;10.80;97.30;;;;;;5093767;28;20941;-84
2021/11/20 10:37:32;;;;;;;27.90;11.00;;;10.80;97.30;;;;;;5094896;28;20460;-84
2021/11/20 10:40:17;;;;;;;30.67;11.17;;;10.80;97.30;;;;;;5106030;28;20427;-83
2021/11/20 10:42:50;;;;;;;34.20;13.63;;;10.90;97.30;;;;;;5093801;28;20442;-84
2021/11/20 10:45:20;;;;;;;32.63;11.83;;;10.90;97.30;;;;;;5089778;28;20559;-84
2021/11/20 10:48:00;;;;;;;26.50;11.83;;;10.90;97.30;;;;;;5090429;28;20750;-84
2021/11/20 10:50:38;;;;;;;28.60;10.40;;;11.00;97.30;;;;;;5093212;28;20442;-85
2021/11/20 10:53:16;;;;;;;26.63;10.47;;;11.00;97.30;;;;;;5094674;28;20920;-84
2021/11/20 10:56:21;;;;;;;23.37;9.87;;;11.10;97.30;;;;;;5093739;28;20436;-84
2021/11/20 10:59:12;;;;;;;28.80;9.47;;;11.10;97.30;;;;;;5093238;28;20511;-84
2021/11/20 11:02:20;;;;;;;19.23;8.60;;;11.20;97.30;;;;;;5092807;28;20440;-85
2021/11/20 11:05:19;;;;;;;23.57;9.70;;;11.20;97.30;;;;;;5070409;28;20409;-84
2021/11/20 11:08:12;;;;;;;22.00;9.90;;;11.20;97.30;;;;;;5093290;28;20921;-85
2021/11/20 11:10:44;;;;;;;23.63;9.20;;;11.20;97.30;;;;;;5093255;28;20726;-85
2021/11/20 11:13:19;;;;;;;18.00;8.70;;;11.20;97.30;;;;;;5093174;28;20413;-84
2021/11/20 11:16:09;;;;;;;21.03;7.40;;;11.30;97.30;;;;;;5093165;28;20508;-85
2021/11/20 11:18:41;;;;;;;18.33;8.10;;;11.30;97.30;;;;;;5091146;28;20424;-84
2021/11/20 11:21:25;;;;;;;18.70;8.37;;;11.30;97.30;;;;;;5093244;28;20401;-81
2021/11/20 11:24:24;;;;;;;22.13;7.37;;;11.30;97.30;;;;;;5098323;28;20532;-81
2021/11/20 11:27:02;;;;;;;16.53;8.00;;;11.30;97.30;;;;;;5098090;28;20512;-80
2021/11/20 11:29:58;;;;;;;18.93;8.70;;;11.30;97.30;;;;;;5099292;28;20431;-81
2021/11/20 11:32:27;;;;;;;15.00;8.70;;;11.30;97.30;;;;;;5098595;28;20444;-81
2021/11/20 11:34:57;;;;;;;23.90;8.90;;;11.30;97.30;;;;;;5098789;28;20408;-81
2021/11/20 11:37:55;;;;;;;21.30;9.10;;;11.30;97.30;;;;;;5098646;28;20452;-81
2021/11/20 11:40:35;;;;;;;15.67;7.50;;;11.30;97.30;;;;;;5098015;28;20508;-80
2021/11/20 11:43:40;;;;;;;13.93;6.23;;;11.30;97.30;;;;;;5099927;28;20662;-81
2021/11/20 11:46:25;;;;;;;13.47;6.20;;;11.30;97.30;;;;;;5098039;28;20436;-81
2021/11/20 11:49:28;;;;;;;20.20;7.00;;;11.30;97.30;;;;;;5098756;28;20416;-80
2021/11/20 11:52:13;;;;;;;13.60;6.70;;;11.30;97.30;;;;;;5097359;28;20976;-81
2021/11/20 11:54:49;;;;;;;12.20;5.97;;;11.30;97.30;;;;;;5090826;28;20405;-80
2021/11/20 11:57:14;;;;;;;13.10;7.43;;;11.30;97.30;;;;;;5097440;28;20558;-80
2021/11/20 11:59:43;;;;;;;15.80;7.30;;;11.30;97.30;;;;;;5096540;28;20452;-80
2021/11/20 12:02:44;;;;;;;17.90;7.23;;;11.30;97.30;;;;;;5096753;28;20260;-80
2021/11/20 12:05:28;;;;;;;15.47;7.67;;;11.20;97.30;;;;;;5099100;28;20872;-80
2021/11/20 12:07:58;;;;;;;12.30;7.03;;;11.30;97.30;;;;;;5097733;28;20450;-80
2021/11/20 12:10:24;;;;;;;16.03;7.80;;;11.20;97.30;;;;;;5098109;28;20416;-79
2021/11/20 12:13:04;;;;;;;19.57;7.90;;;11.30;97.30;;;;;;5095167;28;20447;-80
2021/11/20 12:15:40;;;;;;;15.30;7.37;;;11.30;97.30;;;;;;5095015;28;20194;-80
2021/11/20 12:18:15;;;;;;;17.03;8.33;;;11.20;97.30;;;;;;5094572;28;20543;-80
2021/11/20 12:21:16;;;;;;;17.93;7.57;;;11.20;97.30;;;;;;5094635;28;20477;-79
2021/11/20 12:23:58;;;;;;;17.27;7.60;;;11.20;97.30;;;;;;5075799;28;20445;-80
2021/11/20 12:26:51;;;;;;;15.53;6.47;;;11.20;97.30;;;;;;5074566;28;20449;-83
2021/11/20 12:29:42;;;;;;;15.23;6.80;;;11.20;97.30;;;;;;5076001;28;20428;-80
2021/11/20 12:32:39;;;;;;;15.87;7.00;;;11.20;97.30;;;;;;5076066;28;20428;-80
2021/11/20 12:35:22;;;;;;;19.13;9.03;;;11.20;97.30;;;;;;5077325;28;20429;-80
2021/11/20 12:37:51;;;;;;;16.63;7.20;;;11.10;97.30;;;;;;5075204;28;20828;-81
2021/11/20 12:40:36;;;;;;;18.37;8.37;;;11.10;97.30;;;;;;5075908;28;20425;-80
2021/11/20 12:43:23;;;;;;;18.40;7.67;;;11.10;97.30;;;;;;5076532;28;20413;-80
2021/11/20 12:46:07;;;;;;;19.53;6.87;;;11.10;97.30;;;;;;5076810;28;20440;-80
2021/11/20 12:49:10;;;;;;;12.87;6.70;;;11.20;97.30;;;;;;5077930;28;20413;-80
2021/11/20 12:52:03;;;;;;;19.47;7.70;;;11.20;97.30;;;;;;5077005;28;20409;-80